createdAt,value
2019-05-14T00:01:13.426Z,60
2019-05-14T00:02:25.960Z,60
2019-05-14T00:03:42.584Z,60
2019-05-14T00:04:57.164Z,60
2019-05-14T00:06:12.761Z,60
2019-05-14T00:07:28.684Z,60
2019-05-14T00:08:45.574Z,60
2019-05-14T00:10:02.779Z,60
2019-05-14T00:11:16.211Z,60
2019-05-14T00:12:31.445Z,61
2019-05-14T00:13:45.270Z,61
2019-05-14T00:14:57.813Z,61
2019-05-14T00:16:14.638Z,61
2019-05-14T00:17:33.906Z,61
2019-05-14T00:18:48.525Z,61
2019-05-14T00:20:17.361Z,61
2019-05-14T00:21:33.194Z,61
2019-05-14T00:22:48.783Z,61
2019-05-14T00:24:04.273Z,62
2019-05-14T00:25:18.967Z,62
2019-05-14T00:26:29.245Z,62
2019-05-14T00:27:37.519Z,62
2019-05-14T00:28:45.940Z,62
2019-05-14T00:29:55.908Z,63
2019-05-14T00:31:03.131Z,62
2019-05-14T00:32:05.580Z,63
2019-05-14T00:33:07.713Z,62
2019-05-14T00:34:11.963Z,62
2019-05-14T00:35:14.041Z,62
2019-05-14T00:36:16.183Z,62
2019-05-14T00:37:18.196Z,63
2019-05-14T00:38:22.857Z,63
2019-05-14T00:39:24.944Z,63
2019-05-14T00:40:27.018Z,63
2019-05-14T00:41:31.376Z,63
2019-05-14T00:42:33.446Z,63
2019-05-14T00:43:35.572Z,63
2019-05-14T00:44:58.518Z,63
2019-05-14T00:46:03.097Z,63
2019-05-14T00:47:05.176Z,63
2019-05-14T00:48:07.307Z,63
2019-05-14T00:49:11.719Z,63
2019-05-14T00:50:13.924Z,63
2019-05-14T00:51:16.068Z,65
2019-05-14T00:52:18.144Z,64
2019-05-14T00:53:22.267Z,64
2019-05-14T00:54:24.324Z,64
2019-05-14T00:55:26.471Z,64
2019-05-14T00:56:28.540Z,64
2019-05-14T00:57:32.891Z,64
2019-05-14T00:58:35.327Z,64
2019-05-14T00:59:37.474Z,64
2019-05-14T01:00:41.976Z,64
2019-05-14T01:01:44.321Z,64
2019-05-14T01:02:46.807Z,64
2019-05-14T01:03:49.281Z,64
2019-05-14T01:04:53.914Z,64
2019-05-14T01:05:56.361Z,64
2019-05-14T01:06:58.437Z,65
2019-05-14T01:08:02.968Z,64
2019-05-14T01:09:05.044Z,65
2019-05-14T01:10:07.551Z,64
2019-05-14T01:11:12.001Z,64
2019-05-14T01:12:14.030Z,64
2019-05-14T01:13:16.164Z,64
2019-05-14T01:14:18.197Z,64
2019-05-14T01:15:22.535Z,64
2019-05-14T01:16:24.608Z,64
2019-05-14T01:17:26.679Z,64
2019-05-14T01:18:28.797Z,63
2019-05-14T01:19:32.878Z,63
2019-05-14T01:20:34.978Z,64
2019-05-14T01:21:37.053Z,64
2019-05-14T01:22:39.123Z,64
2019-05-14T01:23:42.407Z,65
2019-05-14T01:24:44.489Z,65
2019-05-14T01:25:46.619Z,64
2019-05-14T01:26:48.703Z,65
2019-05-14T01:27:52.694Z,64
2019-05-14T01:28:54.794Z,65
2019-05-14T01:29:56.861Z,64
2019-05-14T01:31:01.943Z,64
2019-05-14T01:32:04.020Z,64
2019-05-14T01:33:06.128Z,65
2019-05-14T01:34:08.208Z,64
2019-05-14T01:35:12.865Z,64
2019-05-14T01:36:14.941Z,66
2019-05-14T01:37:17.006Z,65
2019-05-14T01:38:21.887Z,66
2019-05-14T01:39:24.243Z,65
2019-05-14T01:40:26.646Z,66
2019-05-14T01:41:28.704Z,65
2019-05-14T01:42:32.912Z,65
2019-05-14T01:43:34.941Z,66
2019-05-14T01:44:36.958Z,68
2019-05-14T01:45:41.538Z,67
2019-05-14T01:46:43.760Z,67
2019-05-14T01:47:46.278Z,67
2019-05-14T01:48:48.355Z,68
2019-05-14T01:49:52.414Z,67
2019-05-14T01:50:54.485Z,69
2019-05-14T01:51:56.553Z,67
2019-05-14T01:53:01.035Z,67
2019-05-14T01:54:03.273Z,67
2019-05-14T01:55:05.404Z,67
2019-05-14T01:56:07.472Z,67
2019-05-14T01:57:12.543Z,67
2019-05-14T01:58:14.688Z,68
2019-05-14T01:59:16.767Z,67
2019-05-14T02:00:18.911Z,67
2019-05-14T02:01:23.068Z,67
2019-05-14T02:02:25.221Z,67
2019-05-14T02:03:27.279Z,66
2019-05-14T02:04:31.775Z,67
2019-05-14T02:05:34.325Z,67
2019-05-14T02:06:36.762Z,67
2019-05-14T02:07:38.891Z,67
2019-05-14T02:08:42.283Z,67
2019-05-14T02:09:44.375Z,68
2019-05-14T02:10:46.429Z,66
2019-05-14T02:11:48.789Z,67
2019-05-14T02:12:52.427Z,67
2019-05-14T02:13:54.502Z,67
2019-05-14T02:14:56.965Z,66
2019-05-14T02:16:02.991Z,67
2019-05-14T02:17:06.043Z,67
2019-05-14T02:18:08.151Z,67
2019-05-14T02:19:12.648Z,67
2019-05-14T02:20:14.775Z,66
2019-05-14T02:21:16.844Z,68
2019-05-14T02:22:18.975Z,68
2019-05-14T02:23:24.010Z,66
2019-05-14T02:24:26.074Z,65
2019-05-14T02:25:28.471Z,66
2019-05-14T02:26:32.590Z,68
2019-05-14T02:27:35.870Z,67
2019-05-14T02:28:37.949Z,67
2019-05-14T02:29:42.674Z,66
2019-05-14T02:31:04.440Z,65
2019-05-14T02:32:11.615Z,66
2019-05-14T02:33:13.975Z,67
2019-05-14T02:34:20.906Z,67
2019-05-14T02:35:23.009Z,66
2019-05-14T02:36:25.508Z,66
2019-05-14T02:37:30.932Z,65
2019-05-14T02:38:33.394Z,64
2019-05-14T02:39:35.519Z,66
2019-05-14T02:40:41.344Z,66
2019-05-14T02:41:43.949Z,65
2019-05-14T02:42:46.091Z,65
2019-05-14T02:43:51.682Z,66
2019-05-14T02:44:53.810Z,65
2019-05-14T02:46:22.878Z,66
2019-05-14T02:47:24.921Z,66
2019-05-14T02:48:30.403Z,66
2019-05-14T02:49:32.499Z,65
2019-05-14T02:50:34.569Z,65
2019-05-14T02:51:40.025Z,65
2019-05-14T02:52:42.173Z,66
2019-05-14T02:53:44.526Z,66
2019-05-14T02:54:50.953Z,66
2019-05-14T02:55:53.047Z,65
2019-05-14T02:56:56.076Z,65
2019-05-14T02:58:01.208Z,64
2019-05-14T02:59:10.578Z,64
2019-05-14T03:00:12.685Z,64
2019-05-14T03:01:15.992Z,64
2019-05-14T03:02:20.096Z,64
2019-05-14T03:03:22.570Z,64
2019-05-14T03:04:24.930Z,64
2019-05-14T03:05:30.902Z,64
2019-05-14T03:06:33.213Z,64
2019-05-14T03:07:39.833Z,64
2019-05-14T03:08:41.972Z,64
2019-05-14T03:09:44.528Z,64
2019-05-14T03:10:51.258Z,64
2019-05-14T03:11:53.970Z,63
2019-05-14T03:12:59.705Z,63
2019-05-14T03:14:03.027Z,63
2019-05-14T03:15:05.562Z,63
2019-05-14T03:16:40.728Z,64
2019-05-14T03:17:43.579Z,64
2019-05-14T03:18:46.220Z,64
2019-05-14T03:19:51.251Z,64
2019-05-14T03:20:53.904Z,64
2019-05-14T03:21:55.991Z,64
2019-05-14T03:23:23.544Z,64
2019-05-14T03:24:29.199Z,63
2019-05-14T03:25:31.600Z,64
2019-05-14T03:26:33.634Z,64
2019-05-14T03:27:35.715Z,64
2019-05-14T03:28:41.290Z,65
2019-05-14T03:29:43.875Z,65
2019-05-14T03:30:54.130Z,64
2019-05-14T03:32:04.148Z,64
2019-05-14T03:33:14.037Z,64
2019-05-14T03:34:23.255Z,64
2019-05-14T03:36:16.163Z,64
2019-05-14T03:37:34.608Z,64
2019-05-14T03:38:40.941Z,64
2019-05-14T03:39:43.092Z,64
2019-05-14T03:40:45.439Z,64
2019-05-14T03:41:50.902Z,64
2019-05-14T03:42:52.984Z,64
2019-05-14T03:43:55.422Z,64
2019-05-14T03:45:01.381Z,64
2019-05-14T03:46:03.837Z,64
2019-05-14T03:47:11.421Z,64
2019-05-14T03:48:13.788Z,64
2019-05-14T03:49:19.611Z,64
2019-05-14T03:50:22.346Z,64
2019-05-14T03:51:25.116Z,65
2019-05-14T03:52:30.979Z,64
2019-05-14T03:54:13.276Z,64
2019-05-14T03:55:15.678Z,65
2019-05-14T03:56:21.221Z,67
2019-05-14T03:57:23.641Z,65
2019-05-14T03:58:30.582Z,66
2019-05-14T03:59:33.337Z,65
2019-05-14T04:00:39.206Z,65
2019-05-14T04:01:41.406Z,65
2019-05-14T04:02:43.944Z,66
2019-05-14T04:03:46.016Z,65
2019-05-14T04:04:51.563Z,66
2019-05-14T04:05:54.057Z,65
2019-05-14T04:07:00.073Z,65
2019-05-14T04:08:02.463Z,65
2019-05-14T04:09:05.171Z,65
2019-05-14T04:10:12.054Z,66
2019-05-14T04:11:14.740Z,66
2019-05-14T04:12:20.467Z,66
2019-05-14T04:13:23.220Z,65
2019-05-14T04:14:25.657Z,64
2019-05-14T04:15:31.055Z,65
2019-05-14T04:16:33.384Z,64
2019-05-14T04:17:43.281Z,66
2019-05-14T04:18:45.600Z,65
2019-05-14T04:19:50.780Z,65
2019-05-14T04:20:53.267Z,65
2019-05-14T04:21:55.778Z,65
2019-05-14T04:23:00.849Z,65
2019-05-14T04:24:03.685Z,65
2019-05-14T04:25:06.036Z,65
2019-05-14T04:26:10.739Z,65
2019-05-14T04:27:14.744Z,65
2019-05-14T04:28:20.839Z,66
2019-05-14T04:29:22.922Z,65
2019-05-14T04:30:25.551Z,65
2019-05-14T04:31:31.166Z,65
2019-05-14T04:32:34.049Z,66
2019-05-14T04:33:39.960Z,66
2019-05-14T04:34:42.118Z,66
2019-05-14T04:35:44.233Z,66
2019-05-14T04:36:49.785Z,65
2019-05-14T04:37:53.135Z,66
2019-05-14T04:39:00.878Z,66
2019-05-14T04:40:03.432Z,66
2019-05-14T04:41:06.089Z,65
2019-05-14T04:42:10.714Z,65
2019-05-14T04:43:12.787Z,65
2019-05-14T04:44:15.151Z,66
2019-05-14T04:45:20.925Z,66
2019-05-14T04:46:23.717Z,66
2019-05-14T04:47:42.963Z,66
2019-05-14T04:48:50.022Z,66
2019-05-14T04:49:53.294Z,66
2019-05-14T04:50:55.700Z,67
2019-05-14T04:52:00.814Z,67
2019-05-14T04:53:03.210Z,66
2019-05-14T04:54:05.290Z,66
2019-05-14T04:55:11.557Z,66
2019-05-14T04:56:14.656Z,66
2019-05-14T04:57:30.301Z,66
2019-05-14T04:58:32.744Z,65
2019-05-14T04:59:39.171Z,66
2019-05-14T05:00:42.659Z,65
2019-05-14T05:01:45.132Z,65
2019-05-14T05:02:51.156Z,64
2019-05-14T05:03:53.905Z,65
2019-05-14T05:04:59.607Z,64
2019-05-14T05:06:02.138Z,65
2019-05-14T05:07:04.289Z,65
2019-05-14T05:08:14.881Z,66
2019-05-14T05:09:20.949Z,65
2019-05-14T05:10:23.027Z,65
2019-05-14T05:11:25.448Z,65
2019-05-14T05:12:31.474Z,64
2019-05-14T05:13:33.559Z,64
2019-05-14T05:14:38.484Z,64
2019-05-14T05:15:41.188Z,63
2019-05-14T05:16:43.328Z,63
2019-05-14T05:17:53.924Z,62
2019-05-14T05:18:59.883Z,62
2019-05-14T05:20:01.954Z,62
2019-05-14T05:21:04.053Z,62
2019-05-14T05:22:08.654Z,62
2019-05-14T05:23:10.741Z,61
2019-05-14T05:24:12.831Z,61
2019-05-14T05:25:14.904Z,60
2019-05-14T05:26:19.843Z,60
2019-05-14T05:27:21.920Z,60
2019-05-14T05:28:24.279Z,60
2019-05-14T05:29:28.998Z,61
2019-05-14T05:30:31.110Z,60
2019-05-14T05:31:33.536Z,60
2019-05-14T05:32:35.887Z,60
2019-05-14T05:33:41.078Z,59
2019-05-14T05:34:43.474Z,59
2019-05-14T05:35:45.561Z,59
2019-05-14T05:36:49.425Z,59
2019-05-14T05:37:51.505Z,60
2019-05-14T05:38:54.006Z,60
2019-05-14T05:39:59.211Z,59
2019-05-14T05:41:01.354Z,59
2019-05-14T05:42:04.061Z,59
2019-05-14T05:43:08.714Z,59
2019-05-14T05:44:11.016Z,59
2019-05-14T05:45:13.085Z,60
2019-05-14T05:46:15.506Z,60
2019-05-14T05:47:19.592Z,60
2019-05-14T05:48:21.946Z,60
2019-05-14T05:49:24.079Z,60
2019-05-14T05:50:28.921Z,60
2019-05-14T05:51:31.090Z,60
2019-05-14T05:52:33.170Z,60
2019-05-14T05:53:35.284Z,60
2019-05-14T05:54:39.378Z,60
2019-05-14T05:55:41.475Z,60
2019-05-14T05:56:43.608Z,60
2019-05-14T05:57:46.088Z,60
2019-05-14T05:58:49.917Z,60
2019-05-14T05:59:52.273Z,60
2019-05-14T06:00:54.372Z,60
2019-05-14T06:01:59.332Z,60
2019-05-14T06:03:02.216Z,60
2019-05-14T06:04:04.327Z,60
2019-05-14T06:05:09.249Z,61
2019-05-14T06:06:15.106Z,60
2019-05-14T06:07:19.250Z,60
2019-05-14T06:08:21.346Z,60
2019-05-14T06:09:23.475Z,59
2019-05-14T06:10:25.540Z,59
2019-05-14T06:11:29.955Z,59
2019-05-14T06:12:32.050Z,58
2019-05-14T06:13:34.131Z,58
2019-05-14T06:14:38.930Z,58
2019-05-14T06:15:53.006Z,59
2019-05-14T06:16:55.091Z,58
2019-05-14T06:18:22.620Z,58
2019-05-14T06:19:24.661Z,58
2019-05-14T06:20:29.018Z,58
2019-05-14T06:21:31.155Z,58
2019-05-14T06:22:33.552Z,57
2019-05-14T06:23:35.680Z,57
2019-05-14T06:24:40.738Z,57
2019-05-14T06:25:43.510Z,57
2019-05-14T06:26:45.661Z,57
2019-05-14T06:27:49.870Z,56
2019-05-14T06:28:52.315Z,56
2019-05-14T06:29:55.352Z,57
2019-05-14T06:31:00.249Z,56
2019-05-14T06:32:03.178Z,55
2019-05-14T06:33:05.272Z,55
2019-05-14T06:34:10.668Z,54
2019-05-14T06:35:13.047Z,54
2019-05-14T06:36:15.669Z,55
2019-05-14T06:37:20.126Z,55
2019-05-14T06:38:22.192Z,55
2019-05-14T06:39:24.320Z,55
2019-05-14T06:40:29.411Z,54
2019-05-14T06:41:31.546Z,54
2019-05-14T06:42:34.459Z,54
2019-05-14T06:43:39.451Z,54
2019-05-14T06:44:41.540Z,55
2019-05-14T06:45:43.658Z,54
2019-05-14T06:46:45.757Z,53
2019-05-14T06:47:50.441Z,53
2019-05-14T06:48:52.531Z,54
2019-05-14T06:49:54.627Z,53
2019-05-14T06:50:59.170Z,53
2019-05-14T06:52:01.919Z,54
2019-05-14T06:53:04.276Z,54
2019-05-14T06:54:06.429Z,53
2019-05-14T06:55:11.047Z,53
2019-05-14T06:56:13.754Z,52
2019-05-14T06:57:18.775Z,53
2019-05-14T06:58:21.710Z,53
2019-05-14T06:59:23.797Z,53
2019-05-14T07:00:28.947Z,52
2019-05-14T07:01:31.156Z,52
2019-05-14T07:02:33.917Z,52
2019-05-14T07:03:38.696Z,53
2019-05-14T07:04:40.797Z,52
2019-05-14T07:05:42.971Z,52
2019-05-14T07:06:45.060Z,52
2019-05-14T07:07:50.348Z,51
2019-05-14T07:08:53.664Z,52
2019-05-14T07:09:58.111Z,51
2019-05-14T07:11:01.013Z,51
2019-05-14T07:12:03.105Z,52
2019-05-14T07:13:05.538Z,51
2019-05-14T07:14:12.891Z,51
2019-05-14T07:15:14.973Z,51
2019-05-14T07:16:20.532Z,51
2019-05-14T07:17:23.007Z,51
2019-05-14T07:18:25.404Z,50
2019-05-14T07:19:30.686Z,50
2019-05-14T07:20:33.412Z,48
2019-05-14T07:21:35.502Z,48
2019-05-14T07:22:40.942Z,47
2019-05-14T07:23:43.367Z,47
2019-05-14T07:24:45.441Z,47
2019-05-14T07:25:49.217Z,47
2019-05-14T07:26:51.599Z,46
2019-05-14T07:27:54.362Z,46
2019-05-14T07:28:59.256Z,46
2019-05-14T07:30:01.365Z,46
2019-05-14T07:31:03.800Z,47
2019-05-14T07:32:05.881Z,47
2019-05-14T07:33:10.349Z,45
2019-05-14T07:34:13.356Z,45
2019-05-14T07:35:15.453Z,45
2019-05-14T07:36:20.644Z,46
2019-05-14T07:37:22.751Z,46
2019-05-14T07:38:24.889Z,46
2019-05-14T07:39:29.780Z,47
2019-05-14T07:40:32.246Z,44
2019-05-14T07:41:34.327Z,45
2019-05-14T07:42:39.570Z,44
2019-05-14T07:43:41.719Z,44
2019-05-14T07:44:43.836Z,43
2019-05-14T07:45:45.957Z,44
2019-05-14T07:46:49.741Z,43
2019-05-14T07:47:52.310Z,44
2019-05-14T07:49:12.561Z,41
2019-05-14T07:50:15.711Z,42
2019-05-14T07:51:20.329Z,43
2019-05-14T07:52:22.445Z,43
2019-05-14T07:53:43.048Z,42
2019-05-14T07:54:45.126Z,42
2019-05-14T07:55:50.367Z,42
2019-05-14T07:56:54.258Z,42
2019-05-14T07:57:58.834Z,41
2019-05-14T07:59:03.340Z,41
2019-05-14T08:00:05.440Z,41
2019-05-14T08:01:10.704Z,43
2019-05-14T08:02:13.831Z,43
2019-05-14T08:03:15.978Z,42
2019-05-14T08:04:21.497Z,42
2019-05-14T08:05:24.030Z,41
2019-05-14T08:06:28.788Z,41
2019-05-14T08:07:30.879Z,42
2019-05-14T08:08:33.018Z,41
2019-05-14T08:09:35.102Z,42
2019-05-14T08:10:39.781Z,42
2019-05-14T08:11:42.153Z,42
2019-05-14T08:12:44.296Z,43
2019-05-14T08:13:46.384Z,42
2019-05-14T08:15:22.983Z,41
2019-05-14T08:16:25.062Z,39
2019-05-14T08:17:29.005Z,39
2019-05-14T08:18:31.168Z,41
2019-05-14T08:19:35.411Z,39
2019-05-14T08:20:39.160Z,40
2019-05-14T08:21:41.262Z,39
2019-05-14T08:22:43.673Z,38
2019-05-14T08:23:48.375Z,39
2019-05-14T08:24:50.717Z,37
2019-05-14T08:25:52.861Z,38
2019-05-14T08:26:54.965Z,38
2019-05-14T08:27:59.785Z,38
2019-05-14T08:29:02.139Z,39
2019-05-14T08:30:04.517Z,38
2019-05-14T08:31:09.085Z,37
2019-05-14T08:32:11.578Z,35
2019-05-14T08:33:14.030Z,36
2019-05-14T08:34:16.116Z,36
2019-05-14T08:35:19.712Z,36
2019-05-14T08:36:21.817Z,36
2019-05-14T08:37:23.894Z,38
2019-05-14T08:38:28.622Z,36
2019-05-14T08:39:30.730Z,35
2019-05-14T08:40:32.874Z,36
2019-05-14T08:41:35.377Z,35
2019-05-14T08:42:39.601Z,35
2019-05-14T08:43:41.701Z,35
2019-05-14T08:44:43.772Z,34
2019-05-14T08:45:49.402Z,35
2019-05-14T08:46:51.488Z,35
2019-05-14T08:47:53.581Z,34
2019-05-14T08:48:58.348Z,34
2019-05-14T08:50:01.740Z,36
2019-05-14T08:51:03.838Z,35
2019-05-14T08:52:09.248Z,34
2019-05-14T08:53:11.376Z,32
2019-05-14T08:54:13.873Z,31
2019-05-14T08:55:18.832Z,32
2019-05-14T08:56:20.947Z,33
2019-05-14T08:57:24.059Z,34
2019-05-14T08:58:30.573Z,35
2019-05-14T08:59:32.743Z,33
2019-05-14T09:00:35.230Z,33
2019-05-14T09:01:55.906Z,32
2019-05-14T09:03:12.142Z,31
2019-05-14T09:04:14.258Z,32
2019-05-14T09:05:19.006Z,32
2019-05-14T09:06:21.325Z,32
2019-05-14T09:07:23.864Z,33
2019-05-14T09:08:28.627Z,31
2019-05-14T09:09:30.756Z,32
2019-05-14T09:10:33.315Z,32
2019-05-14T09:11:50.655Z,32
2019-05-14T09:12:52.742Z,31
2019-05-14T09:13:54.833Z,31
2019-05-14T09:14:59.676Z,30
2019-05-14T09:16:02.064Z,30
2019-05-14T09:17:04.461Z,30
2019-05-14T09:18:11.451Z,30
2019-05-14T09:19:14.672Z,31
2019-05-14T09:20:19.576Z,30
2019-05-14T09:21:21.698Z,30
2019-05-14T09:22:23.856Z,30
2019-05-14T09:23:29.481Z,30
2019-05-14T09:24:31.854Z,31
2019-05-14T09:25:34.400Z,32
2019-05-14T09:26:40.925Z,29
2019-05-14T09:27:43.482Z,31
2019-05-14T09:28:47.989Z,30
2019-05-14T09:29:51.010Z,30
2019-05-14T09:30:53.105Z,29
2019-05-14T09:31:55.222Z,29
2019-05-14T09:33:00.187Z,27
2019-05-14T09:34:02.694Z,28
2019-05-14T09:35:05.169Z,29
2019-05-14T09:36:28.702Z,30
2019-05-14T09:37:31.115Z,29
2019-05-14T09:38:33.220Z,29
2019-05-14T09:39:35.321Z,29
2019-05-14T09:40:40.904Z,28
2019-05-14T09:41:43.010Z,27
2019-05-14T09:42:45.516Z,27
2019-05-14T09:43:49.667Z,28
2019-05-14T09:44:51.837Z,29
2019-05-14T09:45:54.214Z,30
2019-05-14T09:46:56.302Z,28
2019-05-14T09:47:59.447Z,27
2019-05-14T09:49:01.535Z,28
2019-05-14T09:50:24.519Z,28
2019-05-14T09:51:28.978Z,26
2019-05-14T09:52:31.675Z,28
2019-05-14T09:53:33.751Z,28
2019-05-14T09:54:35.927Z,27
2019-05-14T09:55:40.047Z,27
2019-05-14T09:56:42.159Z,27
2019-05-14T09:57:44.342Z,29
2019-05-14T09:58:46.458Z,26
2019-05-14T09:59:48.911Z,27
2019-05-14T10:00:51.010Z,26
2019-05-14T10:01:53.126Z,25
2019-05-14T10:02:55.233Z,24
2019-05-14T10:04:00.479Z,26
2019-05-14T10:05:02.956Z,25
2019-05-14T10:06:05.064Z,24
2019-05-14T10:07:09.604Z,25
2019-05-14T10:08:11.716Z,24
2019-05-14T10:09:14.105Z,24
2019-05-14T10:10:20.258Z,24
2019-05-14T10:11:22.340Z,24
2019-05-14T10:12:24.500Z,24
2019-05-14T10:13:29.222Z,24
2019-05-14T10:14:31.706Z,27
2019-05-14T10:15:34.199Z,27
2019-05-14T10:16:39.314Z,26
2019-05-14T10:17:41.854Z,26
2019-05-14T10:18:44.865Z,25
2019-05-14T10:19:50.911Z,26
2019-05-14T10:20:53.011Z,25
2019-05-14T10:21:55.436Z,25
2019-05-14T10:22:59.823Z,26
2019-05-14T10:24:02.210Z,24
2019-05-14T10:25:04.727Z,25
2019-05-14T10:26:09.934Z,27
2019-05-14T10:27:12.069Z,27
2019-05-14T10:28:14.183Z,26
2019-05-14T10:29:16.327Z,26
2019-05-14T10:30:20.952Z,27
2019-05-14T10:31:23.071Z,27
2019-05-14T10:32:25.209Z,27
2019-05-14T10:33:30.219Z,28
2019-05-14T10:34:32.368Z,28
2019-05-14T10:35:34.492Z,27
2019-05-14T10:36:36.574Z,27
2019-05-14T10:37:41.008Z,27
2019-05-14T10:38:43.401Z,26
2019-05-14T10:39:45.542Z,24
2019-05-14T10:40:47.656Z,24
2019-05-14T10:41:50.494Z,24
2019-05-14T10:42:53.281Z,24
2019-05-14T10:43:58.582Z,24
2019-05-14T10:45:00.913Z,24
2019-05-14T10:46:03.408Z,24
2019-05-14T10:47:05.561Z,23
2019-05-14T10:48:10.996Z,24
2019-05-14T10:49:24.940Z,25
2019-05-14T10:50:29.735Z,23
2019-05-14T10:51:32.283Z,24
2019-05-14T10:52:34.390Z,25
2019-05-14T10:53:36.503Z,25
2019-05-14T10:54:59.750Z,25
2019-05-14T10:56:02.094Z,26
2019-05-14T10:57:04.210Z,26
2019-05-14T10:58:09.323Z,27
2019-05-14T10:59:11.499Z,24
2019-05-14T11:00:13.935Z,26
2019-05-14T11:01:16.071Z,25
2019-05-14T11:02:19.532Z,25
2019-05-14T11:03:21.643Z,25
2019-05-14T11:04:24.122Z,25
2019-05-14T11:05:28.703Z,26
2019-05-14T11:06:30.870Z,25
2019-05-14T11:07:32.925Z,25
2019-05-14T11:08:35.038Z,25
2019-05-14T11:09:38.967Z,26
2019-05-14T11:10:43.492Z,25
2019-05-14T11:11:45.868Z,26
2019-05-14T11:12:55.828Z,25
2019-05-14T11:13:57.999Z,23
2019-05-14T11:15:00.088Z,25
2019-05-14T11:16:02.707Z,25
2019-05-14T11:17:04.868Z,25
2019-05-14T11:18:09.596Z,26
2019-05-14T11:19:12.195Z,27
2019-05-14T11:20:14.299Z,27
2019-05-14T11:21:30.811Z,26
2019-05-14T11:22:32.925Z,27
2019-05-14T11:23:35.037Z,27
2019-05-14T11:24:39.930Z,26
2019-05-14T11:25:42.109Z,26
2019-05-14T11:26:44.253Z,27
2019-05-14T11:27:46.354Z,27
2019-05-14T11:28:50.504Z,26
2019-05-14T11:29:52.578Z,24
2019-05-14T11:30:54.699Z,25
2019-05-14T11:31:56.854Z,26
2019-05-14T11:32:59.377Z,27
2019-05-14T11:34:01.979Z,26
2019-05-14T11:35:04.397Z,26
2019-05-14T11:36:09.981Z,27
2019-05-14T11:37:12.084Z,27
2019-05-14T11:38:38.885Z,28
2019-05-14T11:39:41.211Z,28
2019-05-14T11:40:43.324Z,27
2019-05-14T11:41:45.480Z,26
2019-05-14T11:42:50.309Z,27
2019-05-14T11:43:52.453Z,28
2019-05-14T11:44:54.573Z,27
2019-05-14T11:45:59.767Z,25
2019-05-14T11:47:03.535Z,25
2019-05-14T11:48:05.937Z,24
2019-05-14T11:49:10.113Z,23
2019-05-14T11:50:12.520Z,24
2019-05-14T11:51:14.692Z,25
2019-05-14T11:52:18.971Z,26
2019-05-14T11:53:22.066Z,26
2019-05-14T11:54:24.186Z,22
2019-05-14T11:55:26.283Z,23
2019-05-14T11:56:30.316Z,22
2019-05-14T11:57:32.716Z,23
2019-05-14T11:58:35.205Z,23
2019-05-14T11:59:40.350Z,25
2019-05-14T12:00:42.468Z,23
2019-05-14T12:01:44.617Z,25
2019-05-14T12:02:46.720Z,24
2019-05-14T12:03:51.709Z,25
2019-05-14T12:04:53.819Z,24
2019-05-14T12:05:58.973Z,25
2019-05-14T12:07:01.073Z,25
2019-05-14T12:08:03.231Z,25
2019-05-14T12:09:05.694Z,24
2019-05-14T12:10:11.151Z,25
2019-05-14T12:11:13.305Z,25
2019-05-14T12:12:15.411Z,25
2019-05-14T12:13:20.116Z,25
2019-05-14T12:14:22.509Z,26
2019-05-14T12:15:24.596Z,25
2019-05-14T12:16:30.259Z,26
2019-05-14T12:17:33.068Z,26
2019-05-14T12:18:35.236Z,26
2019-05-14T12:19:45.036Z,26
2019-05-14T12:20:50.458Z,27
2019-05-14T12:22:13.075Z,27
2019-05-14T12:23:15.592Z,26
2019-05-14T12:24:19.715Z,26
2019-05-14T12:25:22.203Z,26
2019-05-14T12:26:24.355Z,27
2019-05-14T12:27:26.472Z,26
2019-05-14T12:28:30.098Z,26
2019-05-14T12:29:32.479Z,28
2019-05-14T12:30:34.964Z,26
2019-05-14T12:31:39.509Z,26
2019-05-14T12:32:41.985Z,28
2019-05-14T12:33:44.509Z,27
2019-05-14T12:34:50.021Z,27
2019-05-14T12:35:52.157Z,26
2019-05-14T12:36:54.260Z,25
2019-05-14T12:37:59.422Z,24
2019-05-14T12:39:01.819Z,26
2019-05-14T12:40:04.333Z,24
2019-05-14T12:41:09.734Z,23
2019-05-14T12:42:12.557Z,24
2019-05-14T12:43:15.427Z,24
2019-05-14T12:44:20.962Z,24
2019-05-14T12:45:23.067Z,24
2019-05-14T12:46:25.740Z,26
2019-05-14T12:47:29.929Z,25
2019-05-14T12:48:32.104Z,27
2019-05-14T12:49:34.232Z,26
2019-05-14T12:50:39.511Z,26
2019-05-14T12:51:44.303Z,26
2019-05-14T12:52:49.525Z,26
2019-05-14T12:53:51.948Z,27
2019-05-14T12:54:54.428Z,26
2019-05-14T12:55:56.878Z,25
2019-05-14T12:56:58.921Z,26
2019-05-14T12:58:01.021Z,26
2019-05-14T12:59:03.148Z,27
2019-05-14T13:00:05.243Z,25
2019-05-14T13:01:10.525Z,24
2019-05-14T13:02:12.861Z,24
2019-05-14T13:03:15.616Z,25
2019-05-14T13:04:20.905Z,25
2019-05-14T13:05:23.308Z,24
2019-05-14T13:06:26.006Z,26
2019-05-14T13:07:28.087Z,25
2019-05-14T13:08:30.263Z,24
2019-05-14T13:09:32.362Z,25
2019-05-14T13:10:34.506Z,23
2019-05-14T13:11:42.349Z,24
2019-05-14T13:12:44.440Z,23
2019-05-14T13:13:50.128Z,23
2019-05-14T13:14:52.239Z,22
2019-05-14T13:15:54.783Z,23
2019-05-14T13:17:00.865Z,23
2019-05-14T13:18:03.333Z,24
2019-05-14T13:19:05.710Z,24
2019-05-14T13:20:14.825Z,25
2019-05-14T13:21:20.267Z,25
2019-05-14T13:22:50.687Z,24
2019-05-14T13:23:52.763Z,25
2019-05-14T13:24:55.141Z,24
2019-05-14T13:26:00.597Z,26
2019-05-14T13:27:03.209Z,25
2019-05-14T13:28:05.390Z,25
2019-05-14T13:29:11.935Z,23
2019-05-14T13:30:14.086Z,23
2019-05-14T13:31:19.207Z,23
2019-05-14T13:32:21.320Z,21
2019-05-14T13:33:23.478Z,22
2019-05-14T13:34:25.571Z,22
2019-05-14T13:35:30.439Z,22
2019-05-14T13:36:32.765Z,22
2019-05-14T13:37:35.154Z,22
2019-05-14T13:38:40.580Z,21
2019-05-14T13:39:43.059Z,22
2019-05-14T13:40:45.213Z,23
2019-05-14T13:41:49.813Z,23
2019-05-14T13:42:52.254Z,25
2019-05-14T13:43:54.395Z,25
2019-05-14T13:44:59.463Z,25
2019-05-14T13:46:01.843Z,25
2019-05-14T13:47:04.652Z,25
2019-05-14T13:48:09.414Z,25
2019-05-14T13:49:11.896Z,24
2019-05-14T13:50:14.732Z,24
2019-05-14T13:51:19.707Z,24
2019-05-14T13:52:22.120Z,24
2019-05-14T13:53:24.228Z,22
2019-05-14T13:54:32.490Z,23
2019-05-14T13:55:34.903Z,21
2019-05-14T13:56:39.912Z,22
2019-05-14T13:57:42.788Z,24
2019-05-14T13:58:45.279Z,22
2019-05-14T13:59:50.179Z,22
2019-05-14T14:00:53.518Z,22
2019-05-14T14:01:59.826Z,24
2019-05-14T14:03:02.003Z,23
2019-05-14T14:04:18.701Z,23
2019-05-14T14:05:22.038Z,21
2019-05-14T14:06:24.743Z,21
2019-05-14T14:07:27.246Z,22
2019-05-14T14:08:30.601Z,23
2019-05-14T14:09:33.079Z,23
2019-05-14T14:10:54.766Z,22
2019-05-14T14:12:04.504Z,23
2019-05-14T14:13:12.959Z,22
2019-05-14T14:14:15.007Z,22
2019-05-14T14:15:17.162Z,22
2019-05-14T14:16:20.880Z,22
2019-05-14T14:17:23.012Z,21
2019-05-14T14:18:29.908Z,23
2019-05-14T14:19:31.960Z,23
2019-05-14T14:20:34.117Z,24
2019-05-14T14:21:39.327Z,21
2019-05-14T14:22:41.673Z,22
2019-05-14T14:23:44.692Z,22
2019-05-14T14:24:50.000Z,22
2019-05-14T14:26:00.573Z,23
2019-05-14T14:27:02.660Z,23
2019-05-14T14:28:04.799Z,23
2019-05-14T14:29:10.062Z,23
2019-05-14T14:30:12.230Z,24
2019-05-14T14:31:14.783Z,23
2019-05-14T14:32:20.130Z,23
2019-05-14T14:33:22.264Z,23
2019-05-14T14:34:24.637Z,24
2019-05-14T14:35:31.486Z,22
2019-05-14T14:36:33.588Z,23
2019-05-14T14:37:39.506Z,23
2019-05-14T14:38:42.307Z,22
2019-05-14T14:39:44.379Z,21
2019-05-14T14:40:49.203Z,22
2019-05-14T14:41:51.321Z,21
2019-05-14T14:42:53.742Z,22
2019-05-14T14:43:57.296Z,24
2019-05-14T14:44:59.745Z,22
2019-05-14T14:46:13.154Z,21
2019-05-14T14:47:20.018Z,22
2019-05-14T14:48:22.152Z,21
2019-05-14T14:49:24.998Z,22
2019-05-14T14:50:30.185Z,21
2019-05-14T14:51:32.642Z,21
2019-05-14T14:52:35.178Z,21
2019-05-14T14:54:16.505Z,22
2019-05-14T14:55:20.767Z,21
2019-05-14T14:56:23.510Z,22
2019-05-14T14:57:25.695Z,21
2019-05-14T14:58:29.528Z,23
2019-05-14T14:59:31.650Z,23
2019-05-14T15:00:33.734Z,23
2019-05-14T15:01:41.407Z,21
2019-05-14T15:02:43.478Z,21
2019-05-14T15:03:49.237Z,20
2019-05-14T15:04:52.718Z,20
2019-05-14T15:05:54.783Z,19
2019-05-14T15:07:00.984Z,20
2019-05-14T15:08:03.180Z,20
2019-05-14T15:09:05.327Z,20
2019-05-14T15:10:09.593Z,22
2019-05-14T15:11:12.122Z,22
2019-05-14T15:12:14.572Z,23
2019-05-14T15:13:16.683Z,21
2019-05-14T15:14:21.490Z,21
2019-05-14T15:15:23.648Z,21
2019-05-14T15:16:29.671Z,21
2019-05-14T15:17:31.853Z,22
2019-05-14T15:18:34.030Z,22